Time;durP1;ratioP1;P1;durP2;ratioP2;P2;SDS_P1;SDS_P2;PMS_P1;PMS_P2;Temp;Humidity;BMP_temperature;BMP_pressure;BME280_temperature;BME280_humidity;BME280_pressure;Samples;Min_cycle;Max_cycle;Signal;HPM_P1;HPM_P2
2022/01/27 00:04:52;;;;;;;;;;;23.30;20.90;;;;;;5148686;27;20438;-54
2022/01/27 00:07:18;;;;;;;;;;;23.30;21.00;;;;;;5147207;27;19976;-49
2022/01/27 00:09:54;;;;;;;;;;;23.20;20.90;;;;;;5145008;27;20002;-48
2022/01/27 00:12:20;;;;;;;;;;;23.30;20.90;;;;;;5150484;27;19931;-49
2022/01/27 00:14:53;;;;;;;;;;;23.30;20.90;;;;;;5144958;27;19976;-49
2022/01/27 00:17:28;;;;;;;;;;;23.30;20.90;;;;;;5144826;27;19979;-50
2022/01/27 00:19:53;;;;;;;;;;;23.40;20.80;;;;;;5147518;27;19934;-49
2022/01/27 00:22:19;;;;;;;;;;;23.30;21.00;;;;;;5142298;27;19923;-46
2022/01/27 00:24:45;;;;;;;;;;;23.30;21.00;;;;;;5144522;27;19923;-48
2022/01/27 00:27:10;;;;;;;;;;;23.30;21.00;;;;;;5114711;27;20401;-49
2022/01/27 00:29:36;;;;;;;;;;;23.20;21.10;;;;;;5144839;27;20313;-48
2022/01/27 00:32:02;;;;;;;;;;;23.20;21.10;;;;;;5146656;27;20294;-57
2022/01/27 00:34:28;;;;;;;;;;;23.30;21.10;;;;;;5148725;27;19927;-48
2022/01/27 00:36:54;;;;;;;;;;;23.20;21.10;;;;;;5143575;27;19945;-49
2022/01/27 00:39:19;;;;;;;;;;;23.30;21.00;;;;;;5145714;27;19930;-49
2022/01/27 00:41:45;;;;;;;;;;;23.30;21.00;;;;;;5143800;27;19923;-50
2022/01/27 00:44:11;;;;;;;;;;;23.30;21.00;;;;;;5144414;27;19927;-49
2022/01/27 00:46:37;;;;;;;;;;;23.30;21.00;;;;;;5150028;27;20393;-49
2022/01/27 00:49:03;;;;;;;;;;;23.30;20.90;;;;;;5144268;27;19927;-50
2022/01/27 00:51:34;;;;;;;;;;;23.30;20.90;;;;;;5144254;27;20279;-50
2022/01/27 00:54:12;;;;;;;;;;;23.30;21.00;;;;;;5131412;27;19923;-52
2022/01/27 00:56:49;;;;;;;;;;;23.40;20.90;;;;;;5141490;27;19929;-51
2022/01/27 01:01:58;;;;;;;;;;;23.30;21.00;;;;;;5149636;27;20002;-49
2022/01/27 01:04:29;;;;;;;;;;;23.20;21.00;;;;;;5143978;27;19923;-44
2022/01/27 01:06:55;;;;;;;;;;;23.20;21.10;;;;;;5144521;27;19930;-55
2022/01/27 01:10:09;;;;;;;;;;;23.30;21.00;;;;;;5149330;27;20017;-45
2022/01/27 01:15:16;;;;;;;;;;;23.30;21.00;;;;;;5101479;27;19927;-47
2022/01/27 01:17:56;;;;;;;;;;;23.30;21.00;;;;;;5147115;27;20830;-50
2022/01/27 01:20:30;;;;;;;;;;;23.10;21.20;;;;;;5143748;27;19927;-50
2022/01/27 01:31:30;;;;;;;;;;;22.80;21.40;;;;;;5142177;27;19950;-47
2022/01/27 01:36:56;;;;;;;;;;;22.80;21.30;;;;;;5148000;27;19934;-46
2022/01/27 01:39:25;;;;;;;;;;;22.80;21.30;;;;;;5143532;27;20017;-44
2022/01/27 01:41:51;;;;;;;;;;;22.80;21.30;;;;;;5143491;27;19930;-45
2022/01/27 01:44:17;;;;;;;;;;;22.80;21.30;;;;;;5148811;27;19923;-45
2022/01/27 01:46:43;;;;;;;;;;;22.80;21.30;;;;;;5143276;27;20298;-47
2022/01/27 01:49:09;;;;;;;;;;;22.80;21.20;;;;;;5148643;27;19923;-45
2022/01/27 01:51:35;;;;;;;;;;;22.90;21.20;;;;;;5140620;27;20017;-49
2022/01/27 01:54:01;;;;;;;;;;;22.90;21.10;;;;;;5140505;27;19931;-48
2022/01/27 01:56:27;;;;;;;;;;;22.90;21.10;;;;;;5148362;27;20022;-48
2022/01/27 01:58:52;;;;;;;;;;;22.90;21.10;;;;;;5143101;27;19994;-48
2022/01/27 02:01:18;;;;;;;;;;;22.90;21.00;;;;;;5142814;27;19927;-46
2022/01/27 02:03:45;;;;;;;;;;;22.80;21.20;;;;;;5148436;27;20063;-46
2022/01/27 02:06:18;;;;;;;;;;;23.00;21.00;;;;;;5143004;27;19927;-47
2022/01/27 02:09:04;;;;;;;;;;;22.90;21.00;;;;;;5144357;27;20013;-56
2022/01/27 02:19:44;;;;;;;;;;;23.00;20.90;;;;;;5148257;27;19975;-49
2022/01/27 02:22:09;;;;;;;;;;;23.00;20.80;;;;;;5142587;27;19927;-47
2022/01/27 02:24:35;;;;;;;;;;;23.00;20.90;;;;;;5142512;27;19953;-50
2022/01/27 02:27:01;;;;;;;;;;;23.00;20.90;;;;;;5148032;27;19937;-48
2022/01/27 02:29:27;;;;;;;;;;;23.00;20.80;;;;;;5138620;27;19923;-51
2022/01/27 02:31:54;;;;;;;;;;;23.00;20.90;;;;;;5146947;27;19927;-52
2022/01/27 02:34:20;;;;;;;;;;;23.10;20.80;;;;;;5143043;27;20492;-51
2022/01/27 02:36:45;;;;;;;;;;;23.10;20.70;;;;;;5142412;27;19923;-50
2022/01/27 02:39:11;;;;;;;;;;;23.10;20.80;;;;;;5148074;27;19932;-48
2022/01/27 02:41:41;;;;;;;;;;;23.20;20.70;;;;;;5142302;27;19934;-48
2022/01/27 02:44:07;;;;;;;;;;;23.10;20.70;;;;;;5141893;27;20340;-48
2022/01/27 02:46:41;;;;;;;;;;;23.10;20.70;;;;;;5145168;27;19923;-55
2022/01/27 02:49:07;;;;;;;;;;;23.10;20.70;;;;;;5140066;27;20240;-50
2022/01/27 02:51:36;;;;;;;;;;;23.10;20.60;;;;;;5141772;27;20018;-49
2022/01/27 02:54:02;;;;;;;;;;;23.10;20.60;;;;;;5147764;27;19930;-47
2022/01/27 02:56:28;;;;;;;;;;;23.20;20.50;;;;;;5142219;27;20267;-47
2022/01/27 02:58:54;;;;;;;;;;;23.30;20.50;;;;;;5147890;27;19981;-47
2022/01/27 03:01:20;;;;;;;;;;;23.20;20.50;;;;;;5144135;27;20392;-48
2022/01/27 03:03:46;;;;;;;;;;;23.30;20.50;;;;;;5146918;27;20422;-55
2022/01/27 03:06:12;;;;;;;;;;;23.20;20.50;;;;;;5148290;27;19928;-51
2022/01/27 03:08:37;;;;;;;;;;;22.70;20.90;;;;;;5144950;27;20381;-52
2022/01/27 03:11:03;;;;;;;;;;;22.40;21.30;;;;;;5146415;27;20354;-51
2022/01/27 03:13:30;;;;;;;;;;;22.20;21.40;;;;;;5127066;27;20014;-52
2022/01/27 03:15:56;;;;;;;;;;;22.20;21.50;;;;;;5128017;27;19968;-50
2022/01/27 03:18:22;;;;;;;;;;;22.20;21.50;;;;;;5121128;27;20264;-58
2022/01/27 03:20:48;;;;;;;;;;;22.00;21.60;;;;;;5147368;27;19927;-52
2022/01/27 03:23:14;;;;;;;;;;;22.00;21.60;;;;;;5144626;27;19984;-53
2022/01/27 03:25:40;;;;;;;;;;;22.10;21.50;;;;;;5148841;27;20353;-50
2022/01/27 03:28:08;;;;;;;;;;;22.10;21.40;;;;;;5145217;27;19971;-50
2022/01/27 03:30:34;;;;;;;;;;;21.90;21.40;;;;;;5144612;27;19966;-49
2022/01/27 03:33:00;;;;;;;;;;;21.90;21.50;;;;;;5151262;27;19939;-49
2022/01/27 03:35:26;;;;;;;;;;;22.00;21.40;;;;;;5145739;27;19930;-51
2022/01/27 03:37:51;;;;;;;;;;;22.10;21.30;;;;;;5147048;27;19923;-54
2022/01/27 03:40:17;;;;;;;;;;;22.10;21.30;;;;;;5150305;27;19970;-51
2022/01/27 03:42:50;;;;;;;;;;;22.00;21.30;;;;;;5143029;27;19927;-50
2022/01/27 03:45:16;;;;;;;;;;;22.10;21.20;;;;;;5148754;27;20398;-51
2022/01/27 03:47:42;;;;;;;;;;;22.00;21.30;;;;;;5145400;27;19956;-48
2022/01/27 03:50:08;;;;;;;;;;;22.10;21.20;;;;;;5145461;27;19933;-48
2022/01/27 03:52:33;;;;;;;;;;;22.00;21.30;;;;;;5151062;27;19930;-49
2022/01/27 03:54:59;;;;;;;;;;;22.00;21.20;;;;;;5145672;27;19923;-46
2022/01/27 03:57:25;;;;;;;;;;;22.00;21.20;;;;;;5145508;27;19923;-50
2022/01/27 03:59:51;;;;;;;;;;;22.00;21.20;;;;;;5150803;27;19962;-49
2022/01/27 04:02:17;;;;;;;;;;;22.00;21.20;;;;;;5141179;27;20030;-49
2022/01/27 04:04:42;;;;;;;;;;;22.00;21.20;;;;;;5149733;27;19927;-49
2022/01/27 04:07:08;;;;;;;;;;;22.10;21.20;;;;;;5145129;27;19934;-49
2022/01/27 04:09:34;;;;;;;;;;;22.20;21.10;;;;;;5145322;27;20298;-48
2022/01/27 04:12:00;;;;;;;;;;;22.10;21.10;;;;;;5150583;27;19927;-48
2022/01/27 04:14:25;;;;;;;;;;;22.20;21.10;;;;;;5145029;27;19931;-51
2022/01/27 04:16:51;;;;;;;;;;;22.00;21.10;;;;;;5145037;27;20386;-49
2022/01/27 04:19:17;;;;;;;;;;;21.90;21.20;;;;;;5148019;27;19927;-47
2022/01/27 04:21:43;;;;;;;;;;;22.00;21.10;;;;;;5142812;27;19922;-49
2022/01/27 04:24:11;;;;;;;;;;;22.00;21.10;;;;;;5149913;27;19923;-52
2022/01/27 04:26:43;;;;;;;;;;;22.10;21.10;;;;;;5146090;27;19967;-47
2022/01/27 04:29:09;;;;;;;;;;;22.00;21.10;;;;;;5145178;27;19923;-49
2022/01/27 04:31:38;;;;;;;;;;;22.00;21.00;;;;;;5150533;27;19923;-51
2022/01/27 04:34:04;;;;;;;;;;;22.00;21.10;;;;;;5144800;27;19923;-50
2022/01/27 04:36:32;;;;;;;;;;;22.00;21.00;;;;;;5144625;27;20286;-49
2022/01/27 04:39:15;;;;;;;;;;;22.00;21.10;;;;;;5146173;27;19987;-48
2022/01/27 04:44:22;;;;;;;;;;;21.90;21.10;;;;;;5144582;27;19953;-49
2022/01/27 04:49:19;;;;;;;;;;;22.00;21.00;;;;;;5144515;27;19933;-50
2022/01/27 04:51:45;;;;;;;;;;;22.00;21.00;;;;;;5144533;27;19927;-51
2022/01/27 04:56:45;;;;;;;;;;;22.00;21.00;;;;;;5141378;27;20362;-46
2022/01/27 04:59:18;;;;;;;;;;;22.00;21.00;;;;;;5142366;27;19931;-52
2022/01/27 05:01:51;;;;;;;;;;;22.10;21.00;;;;;;5149819;27;19998;-47
2022/01/27 05:04:19;;;;;;;;;;;22.20;20.90;;;;;;5144217;27;19972;-50
2022/01/27 05:06:48;;;;;;;;;;;22.20;20.90;;;;;;5148833;27;20297;-52
2022/01/27 05:09:13;;;;;;;;;;;22.20;20.90;;;;;;5145992;27;20305;-47
2022/01/27 05:11:48;;;;;;;;;;;22.10;21.00;;;;;;5143926;27;19927;-48
2022/01/27 05:14:19;;;;;;;;;;;22.10;21.00;;;;;;5126307;27;19923;-52
2022/01/27 05:16:44;;;;;;;;;;;22.00;21.10;;;;;;5141102;27;20400;-47
2022/01/27 05:19:13;;;;;;;;;;;22.10;21.00;;;;;;5142787;27;20026;-47
2022/01/27 05:21:39;;;;;;;;;;;22.00;21.10;;;;;;5149068;27;19933;-46
2022/01/27 05:24:05;;;;;;;;;;;22.00;21.10;;;;;;5143111;27;19923;-46
2022/01/27 05:26:33;;;;;;;;;;;22.10;21.00;;;;;;5143494;27;19967;-46
2022/01/27 05:28:59;;;;;;;;;;;22.00;21.00;;;;;;5149195;27;19923;-46
2022/01/27 05:31:25;;;;;;;;;;;22.30;20.90;;;;;;5143733;27;19930;-45
2022/01/27 05:33:51;;;;;;;;;;;22.20;20.80;;;;;;5145997;27;19927;-51
2022/01/27 05:36:16;;;;;;;;;;;22.10;20.90;;;;;;5141840;27;19923;-45
2022/01/27 05:38:42;;;;;;;;;;;22.10;21.00;;;;;;5143663;27;19923;-46
2022/01/27 05:41:08;;;;;;;;;;;22.30;20.80;;;;;;5149103;27;19971;-46
2022/01/27 05:43:34;;;;;;;;;;;22.30;20.80;;;;;;5143228;27;20005;-46
2022/01/27 05:46:00;;;;;;;;;;;22.30;20.90;;;;;;5143275;27;19954;-49
2022/01/27 05:48:25;;;;;;;;;;;22.30;20.80;;;;;;5148988;27;20267;-46
2022/01/27 05:50:51;;;;;;;;;;;22.30;20.70;;;;;;5143337;27;20054;-47
2022/01/27 05:53:17;;;;;;;;;;;22.30;20.80;;;;;;5141847;27;19930;-54
2022/01/27 05:55:43;;;;;;;;;;;22.40;20.60;;;;;;5144802;27;19984;-45
2022/01/27 05:58:08;;;;;;;;;;;22.30;20.70;;;;;;5142998;27;19931;-45
2022/01/27 06:00:34;;;;;;;;;;;22.40;20.60;;;;;;5148378;27;20063;-46
2022/01/27 06:03:00;;;;;;;;;;;22.50;20.50;;;;;;5142890;27;19975;-46
2022/01/27 06:05:26;;;;;;;;;;;22.40;20.60;;;;;;5142833;27;20005;-48
2022/01/27 06:07:52;;;;;;;;;;;22.40;20.70;;;;;;5148263;27;19954;-45
2022/01/27 06:10:18;;;;;;;;;;;22.40;20.60;;;;;;5140245;27;20383;-47
2022/01/27 06:12:47;;;;;;;;;;;22.30;20.70;;;;;;5141153;27;19986;-52
2022/01/27 06:15:13;;;;;;;;;;;22.30;20.60;;;;;;5147641;27;19927;-46
2022/01/27 06:17:39;;;;;;;;;;;22.30;20.70;;;;;;5124181;27;20378;-47
2022/01/27 06:20:05;;;;;;;;;;;22.30;20.70;;;;;;5148137;27;19950;-45
2022/01/27 06:22:31;;;;;;;;;;;22.30;20.70;;;;;;5142570;27;19923;-44
2022/01/27 06:24:57;;;;;;;;;;;22.30;20.70;;;;;;5142776;27;19983;-45
2022/01/27 06:27:22;;;;;;;;;;;22.40;20.60;;;;;;5148191;27;20294;-48
2022/01/27 06:29:48;;;;;;;;;;;22.30;20.70;;;;;;5139311;27;20279;-45
2022/01/27 06:32:14;;;;;;;;;;;22.40;20.60;;;;;;5140595;27;20267;-45
2022/01/27 06:34:39;;;;;;;;;;;22.40;20.60;;;;;;5147424;27;19931;-45
2022/01/27 06:37:05;;;;;;;;;;;22.40;20.60;;;;;;5141663;27;19923;-45
2022/01/27 06:39:31;;;;;;;;;;;22.50;20.50;;;;;;5147986;27;19923;-48
2022/01/27 06:41:57;;;;;;;;;;;22.30;20.50;;;;;;5142532;27;19923;-49
2022/01/27 06:44:23;;;;;;;;;;;22.30;20.50;;;;;;5142425;27;19979;-46
2022/01/27 06:46:48;;;;;;;;;;;22.30;20.50;;;;;;5146622;27;19946;-55
2022/01/27 06:49:16;;;;;;;;;;;22.30;20.50;;;;;;5139259;27;19931;-45
2022/01/27 06:51:43;;;;;;;;;;;22.30;20.50;;;;;;5141216;27;20003;-45
2022/01/27 06:54:09;;;;;;;;;;;22.30;20.50;;;;;;5147523;27;20003;-50
2022/01/27 06:56:35;;;;;;;;;;;22.40;20.40;;;;;;5142128;27;19923;-44
2022/01/27 06:59:00;;;;;;;;;;;22.40;20.40;;;;;;5147012;27;20382;-52
2022/01/27 07:01:26;;;;;;;;;;;22.40;20.40;;;;;;5143163;27;19986;-45
2022/01/27 07:03:52;;;;;;;;;;;22.40;20.40;;;;;;5142069;27;19923;-46
2022/01/27 07:06:18;;;;;;;;;;;22.40;20.40;;;;;;5144897;27;19971;-44
2022/01/27 07:08:44;;;;;;;;;;;22.40;20.40;;;;;;5139557;27;19927;-47
2022/01/27 07:11:09;;;;;;;;;;;22.40;20.30;;;;;;5142030;27;19934;-46
2022/01/27 07:13:40;;;;;;;;;;;22.30;20.40;;;;;;5147484;27;19923;-46
2022/01/27 07:16:09;;;;;;;;;;;22.50;20.40;;;;;;5141871;27;19975;-47
2022/01/27 07:18:36;;;;;;;;;;;22.30;20.40;;;;;;5141995;27;19935;-45
2022/01/27 07:21:02;;;;;;;;;;;22.30;20.30;;;;;;5147347;27;19931;-47
2022/01/27 07:23:28;;;;;;;;;;;22.30;20.30;;;;;;5141896;27;19927;-49
2022/01/27 07:25:54;;;;;;;;;;;22.40;20.30;;;;;;5143168;27;19926;-44
2022/01/27 07:28:19;;;;;;;;;;;22.40;20.30;;;;;;5140798;27;19988;-44
2022/01/27 07:30:45;;;;;;;;;;;22.40;20.30;;;;;;5141735;27;19923;-46
2022/01/27 07:33:11;;;;;;;;;;;22.60;20.10;;;;;;5147544;27;19931;-43
2022/01/27 07:35:37;;;;;;;;;;;22.40;20.30;;;;;;5142010;27;19976;-43
2022/01/27 07:38:04;;;;;;;;;;;22.60;20.10;;;;;;5141723;27;20068;-43
2022/01/27 07:40:29;;;;;;;;;;;22.60;20.10;;;;;;5147313;27;19930;-46
2022/01/27 07:42:55;;;;;;;;;;;22.60;20.10;;;;;;5138860;27;19923;-45
2022/01/27 07:45:21;;;;;;;;;;;22.60;20.10;;;;;;5144776;27;19943;-47
2022/01/27 07:47:47;;;;;;;;;;;22.60;20.10;;;;;;5143538;27;19930;-44
2022/01/27 07:50:12;;;;;;;;;;;22.60;20.10;;;;;;5114973;27;19973;-44
2022/01/27 07:52:41;;;;;;;;;;;22.60;20.00;;;;;;5151068;27;19923;-45
2022/01/27 07:55:10;;;;;;;;;;;22.60;20.10;;;;;;5145629;27;20370;-45
2022/01/27 07:57:36;;;;;;;;;;;22.60;20.10;;;;;;5145343;27;19938;-49
2022/01/27 08:00:02;;;;;;;;;;;22.70;20.00;;;;;;5151005;27;20289;-45
2022/01/27 08:02:28;;;;;;;;;;;22.60;20.10;;;;;;5141357;27;20363;-48
2022/01/27 08:04:54;;;;;;;;;;;22.70;20.00;;;;;;5146475;27;20027;-54
2022/01/27 08:07:20;;;;;;;;;;;22.60;20.00;;;;;;5148097;27;19923;-46
2022/01/27 08:09:47;;;;;;;;;;;22.70;19.90;;;;;;5145310;27;20267;-46
2022/01/27 08:12:13;;;;;;;;;;;22.80;19.80;;;;;;5126121;27;19934;-48
2022/01/27 08:14:40;;;;;;;;;;;22.70;19.90;;;;;;5144984;27;19930;-45
2022/01/27 08:17:05;;;;;;;;;;;22.70;19.80;;;;;;5145144;27;19927;-46
2022/01/27 08:19:31;;;;;;;;;;;22.70;19.90;;;;;;5148609;27;19948;-52
2022/01/27 08:21:57;;;;;;;;;;;22.70;19.80;;;;;;5142598;27;19923;-46
2022/01/27 08:24:23;;;;;;;;;;;22.60;19.90;;;;;;5143960;27;19938;-45
2022/01/27 08:26:50;;;;;;;;;;;22.70;19.80;;;;;;5150301;27;19927;-46
2022/01/27 08:29:23;;;;;;;;;;;22.90;19.70;;;;;;5144948;27;19927;-46
2022/01/27 08:31:57;;;;;;;;;;;22.80;19.80;;;;;;5150355;27;19922;-46
2022/01/27 08:34:35;;;;;;;;;;;22.80;19.70;;;;;;5146906;27;19923;-44
2022/01/27 08:37:21;;;;;;;;;;;22.80;19.70;;;;;;5144631;27;20373;-46
2022/01/27 08:39:47;;;;;;;;;;;22.70;19.70;;;;;;5141133;27;20001;-54
2022/01/27 08:42:13;;;;;;;;;;;22.80;19.70;;;;;;5147637;27;19944;-46
2022/01/27 08:44:39;;;;;;;;;;;22.80;19.70;;;;;;5144504;27;20025;-45
2022/01/27 08:47:05;;;;;;;;;;;22.80;19.70;;;;;;5150104;27;19927;-45
2022/01/27 08:49:31;;;;;;;;;;;22.80;19.70;;;;;;5144482;27;20370;-46
2022/01/27 08:51:57;;;;;;;;;;;22.80;19.60;;;;;;5144165;27;19971;-47
2022/01/27 08:54:23;;;;;;;;;;;22.90;19.60;;;;;;5149748;27;20450;-46
2022/01/27 08:56:49;;;;;;;;;;;22.80;19.70;;;;;;5141602;27;20030;-47
2022/01/27 08:59:16;;;;;;;;;;;22.90;19.60;;;;;;5140975;27;20382;-52
2022/01/27 09:01:42;;;;;;;;;;;22.80;19.60;;;;;;5149449;27;19927;-48
2022/01/27 09:04:08;;;;;;;;;;;22.90;19.50;;;;;;5144198;27;20362;-46
2022/01/27 09:06:34;;;;;;;;;;;22.90;19.50;;;;;;5149765;27;19982;-44
2022/01/27 09:09:00;;;;;;;;;;;23.00;19.50;;;;;;5144177;27;20022;-44
2022/01/27 09:11:28;;;;;;;;;;;22.90;19.50;;;;;;5144118;27;19927;-46
2022/01/27 09:13:55;;;;;;;;;;;22.80;19.60;;;;;;5149491;27;20349;-44
2022/01/27 09:16:21;;;;;;;;;;;22.80;19.60;;;;;;5139852;27;19934;-47
2022/01/27 09:18:50;;;;;;;;;;;22.90;19.50;;;;;;5124512;27;20204;-47
2022/01/27 09:21:22;;;;;;;;;;;23.00;19.50;;;;;;5128279;27;19982;-49
2022/01/27 09:23:48;;;;;;;;;;;23.00;19.50;;;;;;5122882;27;19971;-50
2022/01/27 09:26:38;;;;;;;;;;;23.00;19.50;;;;;;5124349;27;19938;-55
2022/01/27 09:28:59;;;;;;;;;;;23.00;19.50;;;;;;5128328;27;20450;-48
2022/01/27 09:31:25;;;;;;;;;;;22.90;19.60;;;;;;5121812;27;19962;-47
2022/01/27 09:33:51;;;;;;;;;;;23.00;19.60;;;;;;5124863;27;19946;-57
2022/01/27 09:36:17;;;;;;;;;;;23.00;19.60;;;;;;5121322;27;19934;-50
2022/01/27 09:38:42;;;;;;;;;;;23.00;19.50;;;;;;5122419;27;19968;-52
2022/01/27 09:41:08;;;;;;;;;;;23.10;19.50;;;;;;5128467;27;19934;-50
2022/01/27 09:43:34;;;;;;;;;;;23.00;19.50;;;;;;5104311;27;20388;-48
2022/01/27 09:46:03;;;;;;;;;;;23.10;19.50;;;;;;5122808;27;19945;-51
2022/01/27 09:48:35;;;;;;;;;;;23.20;19.40;;;;;;5128072;27;20272;-49
2022/01/27 09:51:23;;;;;;;;;;;23.10;19.50;;;;;;5122524;27;19932;-50
2022/01/27 09:53:50;;;;;;;;;;;23.20;19.50;;;;;;5118770;27;20419;-48
2022/01/27 09:56:16;;;;;;;;;;;23.10;19.60;;;;;;5126697;27;20339;-48
2022/01/27 09:58:41;;;;;;;;;;;23.20;19.50;;;;;;5122456;27;19927;-51
2022/01/27 10:01:07;;;;;;;;;;;22.90;19.70;;;;;;5122887;27;20481;-54
2022/01/27 10:03:33;;;;;;;;;;;20.10;22.80;;;;;;5127587;27;19992;-47
2022/01/27 10:06:13;;;;;;;;;;;21.80;21.00;;;;;;5122247;27;20416;-46
2022/01/27 10:08:42;;;;;;;;;;;22.30;20.40;;;;;;5127594;27;20401;-48
2022/01/27 10:11:14;;;;;;;;;;;22.60;20.10;;;;;;5120220;27;19927;-51
2022/01/27 10:13:43;;;;;;;;;;;22.80;20.00;;;;;;5119761;27;19932;-50
2022/01/27 10:16:08;;;;;;;;;;;22.90;19.90;;;;;;5127412;27;20533;-50
2022/01/27 10:18:39;;;;;;;;;;;23.00;19.90;;;;;;5103028;27;19980;-48
2022/01/27 10:21:05;;;;;;;;;;;23.00;19.90;;;;;;5121944;27;20460;-48
2022/01/27 10:23:35;;;;;;;;;;;23.10;19.90;;;;;;5127413;27;20208;-50
2022/01/27 10:26:11;;;;;;;;;;;23.10;19.90;;;;;;5121966;27;19933;-49
2022/01/27 10:31:07;;;;;;;;;;;23.20;19.90;;;;;;5124903;27;19923;-49
2022/01/27 10:33:52;;;;;;;;;;;20.60;22.40;;;;;;5121014;27;19923;-47
2022/01/27 10:36:17;;;;;;;;;;;21.20;22.10;;;;;;5121792;27;20177;-50
2022/01/27 10:38:43;;;;;;;;;;;22.20;20.90;;;;;;5127272;27;20494;-52
2022/01/27 10:41:09;;;;;;;;;;;22.50;20.70;;;;;;5121946;27;19924;-51
2022/01/27 10:43:35;;;;;;;;;;;22.70;20.50;;;;;;5125028;27;19930;-58
2022/01/27 10:46:09;;;;;;;;;;;22.80;20.40;;;;;;5105875;27;20520;-56
2022/01/27 10:48:39;;;;;;;;;;;22.90;20.30;;;;;;5099931;27;20415;-54
2022/01/27 10:53:57;;;;;;;;;;;23.00;20.20;;;;;;5121355;28;19934;-49
2022/01/27 10:56:24;;;;;;;;;;;23.10;20.20;;;;;;5121286;28;19928;-52
2022/01/27 10:58:49;;;;;;;;;;;23.10;20.20;;;;;;5126985;28;19923;-49
2022/01/27 11:01:20;;;;;;;;;;;23.20;20.20;;;;;;5121650;28;19966;-49
2022/01/27 11:03:48;;;;;;;;;;;23.30;20.20;;;;;;5121778;28;19930;-48
2022/01/27 11:06:14;;;;;;;;;;;19.90;23.60;;;;;;5124278;28;19927;-50
2022/01/27 11:08:42;;;;;;;;;;;21.30;22.20;;;;;;5118611;28;19934;-53
2022/01/27 11:11:08;;;;;;;;;;;22.20;21.30;;;;;;5103313;28;20018;-55
2022/01/27 11:13:35;;;;;;;;;;;22.50;21.00;;;;;;5126856;28;20302;-55
2022/01/27 11:16:03;;;;;;;;;;;22.70;20.80;;;;;;5101520;28;19932;-53
2022/01/27 11:18:30;;;;;;;;;;;22.80;20.80;;;;;;5123320;28;19972;-58
2022/01/27 11:21:03;;;;;;;;;;;22.90;20.60;;;;;;5125438;27;19931;-53
2022/01/27 11:25:58;;;;;;;;;;;23.00;20.60;;;;;;5126570;27;19945;-49
2022/01/27 11:28:24;;;;;;;;;;;19.70;24.50;;;;;;5105827;27;19930;-54
2022/01/27 11:31:08;;;;;;;;;;;21.80;22.20;;;;;;5125543;27;19972;-53
2022/01/27 11:33:34;;;;;;;;;;;22.40;21.40;;;;;;5112412;27;20275;-54
2022/01/27 11:36:06;;;;;;;;;;;22.70;21.10;;;;;;5125167;27;19923;-52
2022/01/27 11:38:32;;;;;;;;;;;22.90;20.90;;;;;;5125219;27;20294;-55
2022/01/27 11:40:58;;;;;;;;;;;23.00;20.80;;;;;;5130408;27;19927;-53
2022/01/27 11:43:35;;;;;;;;;;;23.10;20.80;;;;;;5122473;27;19931;-57
2022/01/27 11:46:13;;;;;;;;;;;22.30;21.50;;;;;;5122885;27;20014;-52
2022/01/27 11:48:39;;;;;;;;;;;20.50;23.80;;;;;;5130434;27;20414;-50
2022/01/27 11:51:07;;;;;;;;;;;21.90;22.20;;;;;;5125016;27;19923;-48
2022/01/27 11:53:40;;;;;;;;;;;22.40;21.60;;;;;;5124902;27;20274;-49
2022/01/27 11:56:06;;;;;;;;;;;22.70;21.30;;;;;;5130359;27;19930;-49
2022/01/27 11:58:52;;;;;;;;;;;22.80;21.10;;;;;;5124501;27;19924;-51
2022/01/27 12:01:25;;;;;;;;;;;23.00;21.00;;;;;;5121863;27;19931;-54
2022/01/27 12:04:04;;;;;;;;;;;21.70;22.40;;;;;;5128003;27;20314;-54
2022/01/27 12:06:32;;;;;;;;;;;21.20;23.10;;;;;;5124412;27;19939;-55
2022/01/27 12:09:16;;;;;;;;;;;22.20;21.90;;;;;;5124641;27;19967;-55
2022/01/27 12:11:44;;;;;;;;;;;22.60;21.50;;;;;;5130071;27;20424;-54
2022/01/27 12:14:10;;;;;;;;;;;22.80;21.20;;;;;;5124360;27;20031;-56
2022/01/27 12:19:02;;;;;;;;;;;23.00;21.00;;;;;;5110638;27;19931;-54
2022/01/27 12:21:28;;;;;;;;;;;21.90;22.10;;;;;;5101838;27;20326;-52
2022/01/27 12:24:14;;;;;;;;;;;21.00;23.30;;;;;;5128680;27;19927;-53
2022/01/27 12:26:56;;;;;;;;;;;22.00;22.00;;;;;;5126703;27;19932;-55
2022/01/27 12:29:26;;;;;;;;;;;22.50;21.50;;;;;;5124219;27;19928;-53
2022/01/27 12:31:52;;;;;;;;;;;22.70;21.30;;;;;;5129742;27;19930;-55
2022/01/27 12:34:18;;;;;;;;;;;22.90;21.10;;;;;;5124185;27;20030;-55
2022/01/27 12:36:53;;;;;;;;;;;23.00;20.90;;;;;;5123895;27;19923;-51
2022/01/27 12:39:22;;;;;;;;;;;23.20;20.80;;;;;;5126039;27;19923;-58
2022/01/27 12:41:49;;;;;;;;;;;21.80;22.00;;;;;;5122792;27;19932;-55
2022/01/27 12:44:15;;;;;;;;;;;21.00;23.20;;;;;;5123756;27;20038;-45
2022/01/27 12:46:59;;;;;;;;;;;22.00;22.00;;;;;;5129538;27;19934;-47
2022/01/27 12:49:46;;;;;;;;;;;22.50;21.40;;;;;;5124124;27;19938;-48
2022/01/27 12:52:19;;;;;;;;;;;22.80;21.20;;;;;;5123228;27;20309;-47
2022/01/27 12:54:46;;;;;;;;;;;23.00;20.90;;;;;;5129081;27;19923;-48
2022/01/27 12:57:13;;;;;;;;;;;23.20;20.80;;;;;;5121240;27;19923;-49
2022/01/27 12:59:40;;;;;;;;;;;20.10;23.90;;;;;;5102770;27;20417;-53
2022/01/27 13:02:06;;;;;;;;;;;21.60;22.40;;;;;;5129041;27;19975;-50
2022/01/27 13:04:32;;;;;;;;;;;22.40;21.50;;;;;;5123585;27;19923;-50
2022/01/27 13:06:58;;;;;;;;;;;22.70;21.20;;;;;;5123556;27;20294;-50
2022/01/27 13:09:26;;;;;;;;;;;22.90;21.00;;;;;;5128948;27;19927;-52
2022/01/27 13:11:53;;;;;;;;;;;23.10;20.80;;;;;;5123542;27;19924;-54
2022/01/27 13:14:19;;;;;;;;;;;23.20;20.80;;;;;;5128707;27;19923;-48
2022/01/27 13:16:50;;;;;;;;;;;23.30;20.70;;;;;;5118984;27;19972;-50
2022/01/27 13:19:31;;;;;;;;;;;23.20;20.70;;;;;;5103661;27;19924;-48
2022/01/27 13:22:00;;;;;;;;;;;23.20;20.80;;;;;;5128598;27;20014;-45
2022/01/27 13:24:28;;;;;;;;;;;23.20;20.80;;;;;;5104832;27;19973;-47
2022/01/27 13:27:07;;;;;;;;;;;23.30;20.80;;;;;;5122985;27;19923;-47
2022/01/27 13:29:37;;;;;;;;;;;23.20;20.80;;;;;;5128528;27;20367;-44
2022/01/27 13:32:04;;;;;;;;;;;23.20;20.90;;;;;;5104741;27;20161;-43
2022/01/27 13:34:30;;;;;;;;;;;23.20;20.90;;;;;;5119802;27;20341;-45
2022/01/27 13:36:58;;;;;;;;;;;23.30;20.90;;;;;;5107420;27;19923;-47
2022/01/27 13:39:36;;;;;;;;;;;23.30;20.90;;;;;;5122674;27;19924;-52
2022/01/27 13:42:08;;;;;;;;;;;23.30;20.90;;;;;;5122777;27;20346;-52
2022/01/27 13:44:34;;;;;;;;;;;23.00;21.30;;;;;;5127594;27;19966;-51
2022/01/27 13:47:03;;;;;;;;;;;22.90;21.40;;;;;;5122670;27;19931;-53
2022/01/27 13:49:32;;;;;;;;;;;22.90;21.50;;;;;;5119480;27;19924;-56
2022/01/27 13:52:01;;;;;;;;;;;22.80;21.50;;;;;;5125674;27;19934;-53
2022/01/27 13:54:29;;;;;;;;;;;22.80;21.70;;;;;;5120120;27;20187;-50
2022/01/27 13:56:58;;;;;;;;;;;22.80;21.70;;;;;;5127066;27;19931;-49
2022/01/27 13:59:29;;;;;;;;;;;22.80;21.70;;;;;;5103192;27;19931;-51
2022/01/27 14:02:20;;;;;;;;;;;22.80;21.70;;;;;;5122492;27;20022;-49
2022/01/27 14:04:47;;;;;;;;;;;22.90;21.70;;;;;;5070827;27;20014;-52
2022/01/27 14:07:33;;;;;;;;;;;22.80;21.70;;;;;;5122751;27;19931;-51
2022/01/27 14:10:06;;;;;;;;;;;22.90;21.80;;;;;;5120983;27;19924;-51
2022/01/27 14:12:47;;;;;;;;;;;22.80;21.80;;;;;;5124072;27;19929;-52
2022/01/27 14:15:31;;;;;;;;;;;22.80;21.90;;;;;;5126350;27;19924;-50
2022/01/27 14:17:58;;;;;;;;;;;22.80;21.90;;;;;;5121926;27;19931;-49
2022/01/27 14:20:24;;;;;;;;;;;22.80;22.00;;;;;;5124232;27;19927;-56
2022/01/27 14:23:18;;;;;;;;;;;22.80;22.00;;;;;;5125590;27;19928;-50
2022/01/27 14:25:56;;;;;;;;;;;22.90;21.90;;;;;;5122066;27;19935;-49
2022/01/27 14:28:22;;;;;;;;;;;22.90;21.90;;;;;;5121475;27;20582;-54
2022/01/27 14:30:48;;;;;;;;;;;22.80;22.10;;;;;;5123143;27;19923;-49
2022/01/27 14:33:14;;;;;;;;;;;22.80;22.20;;;;;;5120995;27;20408;-53
2022/01/27 14:35:40;;;;;;;;;;;22.80;22.30;;;;;;5127285;27;20480;-51
2022/01/27 14:38:05;;;;;;;;;;;22.80;22.20;;;;;;5121592;27;20009;-52
2022/01/27 14:40:32;;;;;;;;;;;22.80;22.30;;;;;;5103376;27;20349;-50
2022/01/27 14:43:00;;;;;;;;;;;22.80;22.40;;;;;;5127103;27;20389;-52
2022/01/27 14:45:26;;;;;;;;;;;22.80;22.40;;;;;;5121579;27;20001;-50
2022/01/27 14:47:55;;;;;;;;;;;22.80;22.50;;;;;;5119230;27;20192;-50
2022/01/27 14:50:21;;;;;;;;;;;22.80;22.50;;;;;;5104294;28;19927;-49
2022/01/27 14:52:47;;;;;;;;;;;22.70;22.70;;;;;;5121168;27;19928;-47
2022/01/27 14:55:13;;;;;;;;;;;22.70;22.60;;;;;;5124375;27;19923;-55
2022/01/27 14:57:39;;;;;;;;;;;22.70;22.80;;;;;;5124247;27;19933;-50
2022/01/27 15:00:06;;;;;;;;;;;22.80;22.70;;;;;;5121690;28;19924;-50
2022/01/27 15:02:32;;;;;;;;;;;22.80;22.80;;;;;;5127029;28;19931;-50
2022/01/27 15:04:57;;;;;;;;;;;22.80;22.80;;;;;;5121637;28;19924;-51
2022/01/27 15:07:23;;;;;;;;;;;22.80;22.80;;;;;;5097122;28;19923;-49
2022/01/27 15:09:49;;;;;;;;;;;22.80;22.70;;;;;;5125944;28;19927;-49